sensor_id;sensor_type;location;lat;lon;timestamp;temperature;humidity
15298;DHT22;7750;48.796;9.026;2022-10-31T00:02:15;16.50;65.20
15298;DHT22;7750;48.796;9.026;2022-10-31T00:07:15;16.40;65.20
15298;DHT22;7750;48.796;9.026;2022-10-31T00:12:16;16.40;65.30
15298;DHT22;7750;48.796;9.026;2022-10-31T00:17:16;16.30;65.50
15298;DHT22;7750;48.796;9.026;2022-10-31T00:22:17;16.20;65.40
15298;DHT22;7750;48.796;9.026;2022-10-31T00:27:18;16.20;65.80
15298;DHT22;7750;48.796;9.026;2022-10-31T00:32:18;16.10;65.80
15298;DHT22;7750;48.796;9.026;2022-10-31T00:37:19;16.10;66.60
15298;DHT22;7750;48.796;9.026;2022-10-31T00:42:19;16.00;66.00
15298;DHT22;7750;48.796;9.026;2022-10-31T00:47:20;16.00;66.00
15298;DHT22;7750;48.796;9.026;2022-10-31T00:52:21;16.00;66.20
15298;DHT22;7750;48.796;9.026;2022-10-31T00:57:21;15.90;66.00
15298;DHT22;7750;48.796;9.026;2022-10-31T01:02:22;15.80;66.10
15298;DHT22;7750;48.796;9.026;2022-10-31T01:07:22;15.80;66.40
15298;DHT22;7750;48.796;9.026;2022-10-31T01:12:23;15.80;66.50
15298;DHT22;7750;48.796;9.026;2022-10-31T01:17:24;15.70;66.80
15298;DHT22;7750;48.796;9.026;2022-10-31T01:22:24;15.70;66.80
15298;DHT22;7750;48.796;9.026;2022-10-31T01:27:25;15.70;67.00
15298;DHT22;7750;48.796;9.026;2022-10-31T01:32:26;15.60;67.00
15298;DHT22;7750;48.796;9.026;2022-10-31T01:37:30;15.60;67.10
15298;DHT22;7750;48.796;9.026;2022-10-31T01:42:31;15.60;67.30
15298;DHT22;7750;48.796;9.026;2022-10-31T01:47:36;15.50;67.50
15298;DHT22;7750;48.796;9.026;2022-10-31T01:52:47;15.50;67.60
15298;DHT22;7750;48.796;9.026;2022-10-31T01:57:52;15.50;67.90
15298;DHT22;7750;48.796;9.026;2022-10-31T02:02:53;15.40;67.70
15298;DHT22;7750;48.796;9.026;2022-10-31T02:08:21;15.40;67.70
15298;DHT22;7750;48.796;9.026;2022-10-31T02:13:24;15.40;67.90
15298;DHT22;7750;48.796;9.026;2022-10-31T02:18:27;15.30;67.80
15298;DHT22;7750;48.796;9.026;2022-10-31T02:28:44;15.30;68.00
15298;DHT22;7750;48.796;9.026;2022-10-31T02:33:55;15.20;68.00
15298;DHT22;7750;48.796;9.026;2022-10-31T02:44:30;15.10;68.20
15298;DHT22;7750;48.796;9.026;2022-10-31T02:49:57;15.10;68.50
15298;DHT22;7750;48.796;9.026;2022-10-31T02:55:10;15.10;68.80
15298;DHT22;7750;48.796;9.026;2022-10-31T03:00:11;15.00;68.60
15298;DHT22;7750;48.796;9.026;2022-10-31T03:10:53;14.90;69.00
15298;DHT22;7750;48.796;9.026;2022-10-31T03:16:14;14.90;69.50
15298;DHT22;7750;48.796;9.026;2022-10-31T03:22:15;14.90;69.20
15298;DHT22;7750;48.796;9.026;2022-10-31T03:26:58;14.80;69.20
15298;DHT22;7750;48.796;9.026;2022-10-31T03:32:06;14.80;69.00
15298;DHT22;7750;48.796;9.026;2022-10-31T03:37:10;14.70;69.20
15298;DHT22;7750;48.796;9.026;2022-10-31T03:42:16;14.70;69.40
15298;DHT22;7750;48.796;9.026;2022-10-31T03:47:18;14.70;69.50
15298;DHT22;7750;48.796;9.026;2022-10-31T03:52:33;14.60;69.20
15298;DHT22;7750;48.796;9.026;2022-10-31T03:57:51;14.70;69.60
15298;DHT22;7750;48.796;9.026;2022-10-31T04:03:13;14.60;69.60
15298;DHT22;7750;48.796;9.026;2022-10-31T04:08:18;14.60;69.70
15298;DHT22;7750;48.796;9.026;2022-10-31T04:13:27;14.60;69.60
15298;DHT22;7750;48.796;9.026;2022-10-31T04:18:29;14.50;69.80
15298;DHT22;7750;48.796;9.026;2022-10-31T04:23:30;14.50;70.20
15298;DHT22;7750;48.796;9.026;2022-10-31T04:28:31;14.50;69.50
15298;DHT22;7750;48.796;9.026;2022-10-31T04:33:34;14.40;69.60
15298;DHT22;7750;48.796;9.026;2022-10-31T04:38:34;14.40;69.90
15298;DHT22;7750;48.796;9.026;2022-10-31T04:43:35;14.40;69.80
15298;DHT22;7750;48.796;9.026;2022-10-31T04:48:35;14.30;69.70
15298;DHT22;7750;48.796;9.026;2022-10-31T04:53:36;14.30;69.80
15298;DHT22;7750;48.796;9.026;2022-10-31T04:58:37;14.20;70.40
15298;DHT22;7750;48.796;9.026;2022-10-31T05:03:37;14.20;69.80
15298;DHT22;7750;48.796;9.026;2022-10-31T05:08:39;14.20;70.00
15298;DHT22;7750;48.796;9.026;2022-10-31T05:13:40;14.20;70.10
15298;DHT22;7750;48.796;9.026;2022-10-31T05:18:41;14.10;70.10
15298;DHT22;7750;48.796;9.026;2022-10-31T05:23:41;14.10;70.00
15298;DHT22;7750;48.796;9.026;2022-10-31T05:28:42;14.10;70.10
15298;DHT22;7750;48.796;9.026;2022-10-31T05:33:42;14.00;70.10
15298;DHT22;7750;48.796;9.026;2022-10-31T05:38:43;14.00;70.30
15298;DHT22;7750;48.796;9.026;2022-10-31T05:43:45;14.00;70.30
15298;DHT22;7750;48.796;9.026;2022-10-31T05:48:45;13.90;70.30
15298;DHT22;7750;48.796;9.026;2022-10-31T05:53:46;13.90;71.00
15298;DHT22;7750;48.796;9.026;2022-10-31T05:58:47;13.90;70.50
15298;DHT22;7750;48.796;9.026;2022-10-31T06:03:48;13.90;70.50
15298;DHT22;7750;48.796;9.026;2022-10-31T06:08:48;13.80;70.60
15298;DHT22;7750;48.796;9.026;2022-10-31T06:13:49;13.80;70.60
15298;DHT22;7750;48.796;9.026;2022-10-31T06:18:50;13.80;70.60
15298;DHT22;7750;48.796;9.026;2022-10-31T06:23:51;13.80;70.70
15298;DHT22;7750;48.796;9.026;2022-10-31T06:28:51;13.80;70.80
15298;DHT22;7750;48.796;9.026;2022-10-31T06:33:52;13.70;70.90
15298;DHT22;7750;48.796;9.026;2022-10-31T06:38:52;13.70;71.00
15298;DHT22;7750;48.796;9.026;2022-10-31T06:43:53;13.70;71.40
15298;DHT22;7750;48.796;9.026;2022-10-31T06:48:54;13.70;71.60
15298;DHT22;7750;48.796;9.026;2022-10-31T06:53:54;13.70;71.60
15298;DHT22;7750;48.796;9.026;2022-10-31T06:58:55;13.70;71.80
15298;DHT22;7750;48.796;9.026;2022-10-31T07:03:55;13.80;71.90
15298;DHT22;7750;48.796;9.026;2022-10-31T07:08:56;13.80;72.10
15298;DHT22;7750;48.796;9.026;2022-10-31T07:13:57;13.90;72.50
15298;DHT22;7750;48.796;9.026;2022-10-31T07:18:57;13.90;72.60
15298;DHT22;7750;48.796;9.026;2022-10-31T07:23:58;14.00;72.70
15298;DHT22;7750;48.796;9.026;2022-10-31T07:28:58;14.10;73.20
15298;DHT22;7750;48.796;9.026;2022-10-31T07:33:59;14.20;73.50
15298;DHT22;7750;48.796;9.026;2022-10-31T07:39:00;14.40;73.70
15298;DHT22;7750;48.796;9.026;2022-10-31T07:44:02;14.60;73.80
15298;DHT22;7750;48.796;9.026;2022-10-31T07:49:03;14.80;73.60
15298;DHT22;7750;48.796;9.026;2022-10-31T07:54:03;15.00;73.50
15298;DHT22;7750;48.796;9.026;2022-10-31T07:59:05;15.30;73.50
15298;DHT22;7750;48.796;9.026;2022-10-31T09:34:30;17.40;75.90
15298;DHT22;7750;48.796;9.026;2022-10-31T09:39:42;17.50;75.20
15298;DHT22;7750;48.796;9.026;2022-10-31T09:50:36;17.90;74.90
15298;DHT22;7750;48.796;9.026;2022-10-31T09:55:25;18.10;74.70
15298;DHT22;7750;48.796;9.026;2022-10-31T10:00:31;18.30;74.20
15298;DHT22;7750;48.796;9.026;2022-10-31T10:05:46;18.40;74.10
15298;DHT22;7750;48.796;9.026;2022-10-31T10:23:03;18.80;74.00
15298;DHT22;7750;48.796;9.026;2022-10-31T10:33:37;19.20;73.80
15298;DHT22;7750;48.796;9.026;2022-10-31T10:38:56;19.40;72.80
15298;DHT22;7750;48.796;9.026;2022-10-31T10:44:25;19.60;72.60
15298;DHT22;7750;48.796;9.026;2022-10-31T10:49:51;19.80;72.10
15298;DHT22;7750;48.796;9.026;2022-10-31T10:55:34;20.00;70.90
15298;DHT22;7750;48.796;9.026;2022-10-31T11:00:42;20.10;70.80
15298;DHT22;7750;48.796;9.026;2022-10-31T11:05:54;20.30;71.20
15298;DHT22;7750;48.796;9.026;2022-10-31T11:11:03;20.40;70.90
15298;DHT22;7750;48.796;9.026;2022-10-31T11:21:29;20.60;69.40
15298;DHT22;7750;48.796;9.026;2022-10-31T11:26:30;20.70;68.70
15298;DHT22;7750;48.796;9.026;2022-10-31T11:31:31;20.80;68.70
15298;DHT22;7750;48.796;9.026;2022-10-31T11:36:37;20.90;67.90
15298;DHT22;7750;48.796;9.026;2022-10-31T11:41:38;20.90;67.40
15298;DHT22;7750;48.796;9.026;2022-10-31T11:47:13;21.00;67.60
15298;DHT22;7750;48.796;9.026;2022-10-31T11:52:16;21.00;67.70
15298;DHT22;7750;48.796;9.026;2022-10-31T11:57:48;21.10;67.20
15298;DHT22;7750;48.796;9.026;2022-10-31T12:02:50;21.10;66.90
15298;DHT22;7750;48.796;9.026;2022-10-31T12:07:50;21.10;67.50
15298;DHT22;7750;48.796;9.026;2022-10-31T12:18:27;21.30;67.80
15298;DHT22;7750;48.796;9.026;2022-10-31T12:34:27;21.50;68.50
15298;DHT22;7750;48.796;9.026;2022-10-31T13:00:36;21.60;67.90
15298;DHT22;7750;48.796;9.026;2022-10-31T13:05:41;21.60;67.80
15298;DHT22;7750;48.796;9.026;2022-10-31T13:10:47;21.50;67.80
15298;DHT22;7750;48.796;9.026;2022-10-31T13:15:56;21.50;67.80
15298;DHT22;7750;48.796;9.026;2022-10-31T13:20:59;21.50;67.90
15298;DHT22;7750;48.796;9.026;2022-10-31T13:31:31;21.40;68.20
15298;DHT22;7750;48.796;9.026;2022-10-31T13:47:00;21.90;69.40
15298;DHT22;7750;48.796;9.026;2022-10-31T14:02:34;22.70;67.40
15298;DHT22;7750;48.796;9.026;2022-10-31T14:07:43;22.80;67.00
15298;DHT22;7750;48.796;9.026;2022-10-31T14:12:45;22.80;66.70
15298;DHT22;7750;48.796;9.026;2022-10-31T14:22:54;22.80;66.10
15298;DHT22;7750;48.796;9.026;2022-10-31T14:27:55;22.70;66.10
15298;DHT22;7750;48.796;9.026;2022-10-31T14:33:01;22.70;66.00
15298;DHT22;7750;48.796;9.026;2022-10-31T14:49:31;22.70;66.70
15298;DHT22;7750;48.796;9.026;2022-10-31T14:54:38;22.80;66.30
15298;DHT22;7750;48.796;9.026;2022-10-31T14:59:47;22.90;65.70
15298;DHT22;7750;48.796;9.026;2022-10-31T15:04:51;22.80;65.20
15298;DHT22;7750;48.796;9.026;2022-10-31T15:10:23;22.70;65.00
15298;DHT22;7750;48.796;9.026;2022-10-31T15:15:26;22.70;65.40
15298;DHT22;7750;48.796;9.026;2022-10-31T15:20:29;22.50;65.80
15298;DHT22;7750;48.796;9.026;2022-10-31T15:25:34;22.40;65.90
15298;DHT22;7750;48.796;9.026;2022-10-31T15:30:35;22.30;66.10
15298;DHT22;7750;48.796;9.026;2022-10-31T15:35:38;22.10;66.10
15298;DHT22;7750;48.796;9.026;2022-10-31T15:40:39;22.00;66.00
15298;DHT22;7750;48.796;9.026;2022-10-31T15:45:42;21.90;66.10
15298;DHT22;7750;48.796;9.026;2022-10-31T15:50:53;21.80;66.20
15298;DHT22;7750;48.796;9.026;2022-10-31T15:56:06;21.70;66.50
15298;DHT22;7750;48.796;9.026;2022-10-31T16:06:21;21.40;66.80
15298;DHT22;7750;48.796;9.026;2022-10-31T16:11:29;21.30;66.80
15298;DHT22;7750;48.796;9.026;2022-10-31T16:16:31;21.20;67.00
15298;DHT22;7750;48.796;9.026;2022-10-31T16:21:37;21.00;66.80
15298;DHT22;7750;48.796;9.026;2022-10-31T16:26:38;20.90;66.90
15298;DHT22;7750;48.796;9.026;2022-10-31T16:31:40;20.80;66.80
15298;DHT22;7750;48.796;9.026;2022-10-31T16:36:41;20.60;66.80
15298;DHT22;7750;48.796;9.026;2022-10-31T16:41:43;20.50;67.00
15298;DHT22;7750;48.796;9.026;2022-10-31T16:46:45;20.30;67.10
15298;DHT22;7750;48.796;9.026;2022-10-31T16:51:46;20.20;67.00
15298;DHT22;7750;48.796;9.026;2022-10-31T16:56:46;20.10;67.20
15298;DHT22;7750;48.796;9.026;2022-10-31T17:01:48;20.00;67.40
15298;DHT22;7750;48.796;9.026;2022-10-31T17:06:49;19.80;67.70
15298;DHT22;7750;48.796;9.026;2022-10-31T17:11:51;19.70;67.70
15298;DHT22;7750;48.796;9.026;2022-10-31T17:16:53;19.60;68.10
15298;DHT22;7750;48.796;9.026;2022-10-31T17:21:54;19.50;68.20
15298;DHT22;7750;48.796;9.026;2022-10-31T17:26:54;19.40;68.50
15298;DHT22;7750;48.796;9.026;2022-10-31T17:31:55;19.40;68.70
15298;DHT22;7750;48.796;9.026;2022-10-31T17:36:55;19.30;68.70
15298;DHT22;7750;48.796;9.026;2022-10-31T17:41:56;19.20;68.80
15298;DHT22;7750;48.796;9.026;2022-10-31T17:46:57;19.10;69.30
15298;DHT22;7750;48.796;9.026;2022-10-31T17:51:57;19.00;69.60
15298;DHT22;7750;48.796;9.026;2022-10-31T17:56:58;18.90;69.50
15298;DHT22;7750;48.796;9.026;2022-10-31T18:01:58;18.90;69.40
15298;DHT22;7750;48.796;9.026;2022-10-31T18:07:00;18.80;69.50
15298;DHT22;7750;48.796;9.026;2022-10-31T18:12:01;18.70;69.80
15298;DHT22;7750;48.796;9.026;2022-10-31T18:17:01;18.60;69.60
15298;DHT22;7750;48.796;9.026;2022-10-31T18:22:02;18.50;69.70
15298;DHT22;7750;48.796;9.026;2022-10-31T18:27:03;18.40;70.50
15298;DHT22;7750;48.796;9.026;2022-10-31T18:32:04;18.40;71.00
15298;DHT22;7750;48.796;9.026;2022-10-31T18:37:06;18.40;71.20
15298;DHT22;7750;48.796;9.026;2022-10-31T18:42:07;18.40;71.40
15298;DHT22;7750;48.796;9.026;2022-10-31T18:47:07;18.40;71.50
15298;DHT22;7750;48.796;9.026;2022-10-31T18:52:08;18.40;71.50
15298;DHT22;7750;48.796;9.026;2022-10-31T18:57:09;18.40;71.70
15298;DHT22;7750;48.796;9.026;2022-10-31T19:02:11;18.40;71.90
15298;DHT22;7750;48.796;9.026;2022-10-31T19:07:14;18.30;72.10
15298;DHT22;7750;48.796;9.026;2022-10-31T19:12:14;18.20;72.50
15298;DHT22;7750;48.796;9.026;2022-10-31T19:17:15;18.10;72.80
15298;DHT22;7750;48.796;9.026;2022-10-31T19:22:16;18.00;72.90
15298;DHT22;7750;48.796;9.026;2022-10-31T19:27:16;17.90;73.30
15298;DHT22;7750;48.796;9.026;2022-10-31T19:32:17;17.90;73.30
15298;DHT22;7750;48.796;9.026;2022-10-31T19:37:17;17.90;73.60
15298;DHT22;7750;48.796;9.026;2022-10-31T19:42:18;17.90;73.60
15298;DHT22;7750;48.796;9.026;2022-10-31T19:47:19;17.90;73.70
15298;DHT22;7750;48.796;9.026;2022-10-31T19:52:19;17.90;73.70
15298;DHT22;7750;48.796;9.026;2022-10-31T19:57:20;17.90;73.60
15298;DHT22;7750;48.796;9.026;2022-10-31T20:02:21;17.90;73.40
15298;DHT22;7750;48.796;9.026;2022-10-31T20:07:21;17.90;73.40
15298;DHT22;7750;48.796;9.026;2022-10-31T20:12:22;17.90;73.30
15298;DHT22;7750;48.796;9.026;2022-10-31T20:17:23;17.90;73.30
15298;DHT22;7750;48.796;9.026;2022-10-31T20:22:23;18.00;73.50
15298;DHT22;7750;48.796;9.026;2022-10-31T20:27:24;18.00;73.50
15298;DHT22;7750;48.796;9.026;2022-10-31T20:32:25;18.10;73.40
15298;DHT22;7750;48.796;9.026;2022-10-31T20:37:25;18.10;73.20
15298;DHT22;7750;48.796;9.026;2022-10-31T20:42:26;18.10;73.10
15298;DHT22;7750;48.796;9.026;2022-10-31T20:47:26;18.20;73.20
15298;DHT22;7750;48.796;9.026;2022-10-31T20:52:27;18.20;73.10
15298;DHT22;7750;48.796;9.026;2022-10-31T20:57:28;18.20;73.00
15298;DHT22;7750;48.796;9.026;2022-10-31T21:02:29;18.20;72.90
15298;DHT22;7750;48.796;9.026;2022-10-31T21:07:30;18.20;72.80
15298;DHT22;7750;48.796;9.026;2022-10-31T21:12:30;18.20;72.80
15298;DHT22;7750;48.796;9.026;2022-10-31T21:17:32;18.10;72.50
15298;DHT22;7750;48.796;9.026;2022-10-31T21:22:33;18.00;72.40
15298;DHT22;7750;48.796;9.026;2022-10-31T21:27:34;17.90;72.30
15298;DHT22;7750;48.796;9.026;2022-10-31T21:32:34;17.80;72.30
15298;DHT22;7750;48.796;9.026;2022-10-31T21:37:35;17.70;72.30
15298;DHT22;7750;48.796;9.026;2022-10-31T21:42:35;17.60;72.50
15298;DHT22;7750;48.796;9.026;2022-10-31T21:47:36;17.50;72.60
15298;DHT22;7750;48.796;9.026;2022-10-31T21:52:40;17.50;72.90
15298;DHT22;7750;48.796;9.026;2022-10-31T21:57:40;17.40;73.20
15298;DHT22;7750;48.796;9.026;2022-10-31T22:02:41;17.40;73.50
15298;DHT22;7750;48.796;9.026;2022-10-31T22:07:42;17.40;73.80
15298;DHT22;7750;48.796;9.026;2022-10-31T22:12:42;17.40;74.20
15298;DHT22;7750;48.796;9.026;2022-10-31T22:17:43;17.40;74.30
15298;DHT22;7750;48.796;9.026;2022-10-31T22:22:46;17.50;74.40
15298;DHT22;7750;48.796;9.026;2022-10-31T22:27:46;17.50;74.70
15298;DHT22;7750;48.796;9.026;2022-10-31T22:32:47;17.60;74.50
15298;DHT22;7750;48.796;9.026;2022-10-31T22:37:49;17.60;74.40
15298;DHT22;7750;48.796;9.026;2022-10-31T22:42:50;17.60;74.40
15298;DHT22;7750;48.796;9.026;2022-10-31T22:47:50;17.60;74.30
15298;DHT22;7750;48.796;9.026;2022-10-31T22:52:51;17.60;74.20
15298;DHT22;7750;48.796;9.026;2022-10-31T22:57:51;17.60;74.40
15298;DHT22;7750;48.796;9.026;2022-10-31T23:02:52;17.60;74.30
15298;DHT22;7750;48.796;9.026;2022-10-31T23:07:57;17.60;74.10
15298;DHT22;7750;48.796;9.026;2022-10-31T23:29:19;17.50;74.10
15298;DHT22;7750;48.796;9.026;2022-10-31T23:34:21;17.40;74.00
15298;DHT22;7750;48.796;9.026;2022-10-31T23:39:21;17.40;74.20
15298;DHT22;7750;48.796;9.026;2022-10-31T23:44:22;17.40;74.20
15298;DHT22;7750;48.796;9.026;2022-10-31T23:49:23;17.30;74.20
15298;DHT22;7750;48.796;9.026;2022-10-31T23:54:25;17.30;74.30
15298;DHT22;7750;48.796;9.026;2022-10-31T23:59:26;17.30;74.70
